MET'MAP v2.0
soon released !

Expected late october,
this new version will be
more efficient, smarter,
and hosted on a brand new
server x3 powerfull...
...and still free !


Not compatible ?
Try the mobile version !

LOG IN : | Subscribe | Disclaimer | Who is Orbifly ? |
ICAO code :
Legend : VFR Marginal VFR IFR Intensive IFR Very Intensive IFR
Visi :
Ceiling :
>= 8 km
>= 3000ft
5 to 8 km
1000 to 3000 ft
1500m to 5 km
500 to 1000 ft
800 to 1500m
200 to 500 ft
< 800m
< 200 ft

METAR - EGNX Nottingham East Midlands - 28 Nov 2020 12:03 UTC
Data Sources :     NOAA   


- Airport Elevation : 306 ft
- IATA code : EMA
- No reported NOTAMs.


EGNX - Nottingham East Midlands

Latest METAR recorded : 2015/08/11 07:50 EGNX 110750Z 26003KT CAVOK 13/11 Q1020
TAF AMD TAF EGNX
Valid from the 28 at 08:00 until the 29 at 06:00 UTC


280759Z 2808/2906 07006KT 9999 BKN025
BECMG 2808/2810 7000 BKN008
TEMPO 2808/2906 2000 -DZ BR BKN003
PROB30
TEMPO 2808/2812 RA
PROB30 2818/2903 0800 FG BKN001
PROB40 2903/2906 0800 FG BKN001

Source NOAA
ATIS : +44 1332 852 852 (ext 3201)


MET'MAP, your aeronautical weather chart ! - Copyright ORBIFLY December 2007

Programming & Development : Alexandra Zaïnal
Co-Developer : Marc-Olivier Méhu
Technical & hardware support : Manuel Goepfert
Concept & Financing : Baudouin d'Aumeries